createdAt,value
2019-02-14T00:00:11.779Z,39.30
2019-02-14T00:02:40.250Z,41.67
2019-02-14T00:05:16.135Z,36.67
2019-02-14T00:07:39.051Z,37.63
2019-02-14T00:10:10.487Z,41.03
2019-02-14T00:12:40.370Z,37.77
2019-02-14T00:15:13.645Z,40.93
2019-02-14T00:17:42.524Z,39.43
2019-02-14T00:20:11.494Z,45.80
2019-02-14T00:22:40.352Z,44.83
2019-02-14T00:25:10.410Z,40.93
2019-02-14T00:27:38.954Z,41.43
2019-02-14T00:30:09.337Z,38.13
2019-02-14T00:32:38.142Z,43.23
2019-02-14T00:35:07.058Z,43.77
2019-02-14T00:37:35.508Z,41.00
2019-02-14T00:40:06.727Z,41.83
2019-02-14T00:42:35.396Z,51.20
2019-02-14T00:45:06.910Z,41.83
2019-02-14T00:47:35.672Z,42.87
2019-02-14T00:50:05.729Z,40.17
2019-02-14T00:52:34.181Z,36.77
2019-02-14T00:55:03.015Z,41.57
2019-02-14T00:57:31.843Z,43.10
2019-02-14T01:00:00.614Z,42.07
2019-02-14T01:02:29.498Z,42.30
2019-02-14T01:05:00.356Z,39.47
2019-02-14T01:07:29.116Z,40.50
2019-02-14T01:09:57.929Z,42.77
2019-02-14T01:12:26.694Z,43.57
2019-02-14T01:14:55.518Z,59.03
2019-02-14T01:17:24.364Z,41.90
2019-02-14T01:19:53.154Z,42.97
2019-02-14T01:22:21.996Z,42.03
2019-02-14T01:24:50.778Z,40.77
2019-02-14T01:27:19.219Z,40.60
2019-02-14T01:29:47.699Z,40.63
2019-02-14T01:32:16.145Z,42.10
2019-02-14T01:34:44.978Z,40.17
2019-02-14T01:37:13.456Z,41.17
2019-02-14T01:39:42.348Z,41.73
2019-02-14T01:42:11.178Z,45.30
2019-02-14T01:44:41.142Z,45.83
2019-02-14T01:47:09.937Z,45.27
2019-02-14T01:49:38.864Z,41.70
2019-02-14T01:52:07.410Z,42.77
2019-02-14T01:54:36.203Z,42.80
2019-02-14T01:57:05.172Z,44.77
2019-02-14T01:59:33.920Z,45.80
2019-02-14T02:02:04.030Z,40.80
2019-02-14T02:04:32.548Z,42.37
2019-02-14T02:07:01.298Z,44.73
2019-02-14T02:09:30.090Z,49.10
2019-02-14T02:11:58.912Z,44.57
2019-02-14T02:14:27.358Z,47.30
2019-02-14T02:16:56.092Z,44.80
2019-02-14T02:19:24.577Z,44.13
2019-02-14T02:21:53.376Z,47.57
2019-02-14T02:24:22.152Z,45.33
2019-02-14T02:26:51.876Z,43.00
2019-02-14T02:29:20.436Z,45.30
2019-02-14T02:31:48.896Z,45.27
2019-02-14T02:34:17.706Z,44.07
2019-02-14T02:36:47.619Z,43.37
2019-02-14T02:39:16.405Z,44.37
2019-02-14T02:41:44.886Z,45.20
2019-02-14T02:44:14.658Z,46.90
2019-02-14T02:46:43.498Z,41.77
2019-02-14T02:49:15.262Z,45.07
2019-02-14T02:51:44.166Z,55.93
2019-02-14T02:54:12.922Z,49.80
2019-02-14T02:56:41.382Z,47.00
2019-02-14T02:59:09.849Z,46.47
2019-02-14T03:01:39.073Z,40.37
2019-02-14T03:04:07.959Z,48.77
2019-02-14T03:06:36.858Z,45.90
2019-02-14T03:09:06.118Z,47.07
2019-02-14T03:11:34.830Z,44.83
2019-02-14T03:14:03.684Z,38.20
2019-02-14T03:16:33.545Z,42.27
2019-02-14T03:19:02.324Z,42.00
2019-02-14T03:21:31.206Z,39.27
2019-02-14T03:23:59.720Z,43.27
2019-02-14T03:26:28.579Z,41.93
2019-02-14T03:28:57.381Z,43.40
2019-02-14T03:31:26.269Z,38.07
2019-02-14T03:33:55.058Z,40.03
2019-02-14T03:36:23.531Z,43.60
2019-02-14T03:38:52.294Z,43.17
2019-02-14T03:41:21.004Z,41.73
2019-02-14T03:43:49.765Z,37.87
2019-02-14T03:46:18.573Z,37.70
2019-02-14T03:48:47.329Z,43.97
2019-02-14T03:51:16.241Z,39.43
2019-02-14T03:53:44.687Z,39.67
2019-02-14T03:56:13.156Z,37.43
2019-02-14T03:58:41.691Z,42.27
2019-02-14T04:01:10.477Z,35.97
2019-02-14T04:03:41.313Z,37.50
2019-02-14T04:06:10.073Z,39.03
2019-02-14T04:08:38.895Z,41.30
2019-02-14T04:11:07.349Z,43.70
2019-02-14T04:13:36.640Z,36.30
2019-02-14T04:16:05.097Z,43.00
2019-02-14T04:18:33.555Z,42.00
2019-02-14T04:21:02.303Z,38.57
2019-02-14T04:23:31.073Z,39.93
2019-02-14T04:25:59.789Z,44.50
2019-02-14T04:28:28.667Z,38.30
2019-02-14T04:30:58.187Z,40.30
2019-02-14T04:33:26.703Z,40.53
2019-02-14T04:35:55.525Z,38.43
2019-02-14T04:38:25.421Z,45.33
2019-02-14T04:40:54.258Z,40.47
2019-02-14T04:43:23.033Z,41.27
2019-02-14T04:45:51.491Z,38.40
2019-02-14T04:48:20.309Z,37.27
2019-02-14T04:50:48.861Z,39.20
2019-02-14T04:53:17.646Z,36.93
2019-02-14T04:55:46.391Z,32.57
2019-02-14T04:58:14.927Z,39.00
2019-02-14T05:00:43.834Z,37.17
2019-02-14T05:03:12.633Z,31.80
2019-02-14T05:05:41.397Z,34.00
2019-02-14T05:08:10.158Z,31.80
2019-02-14T05:10:38.893Z,37.17
2019-02-14T05:13:07.610Z,31.93
2019-02-14T05:15:36.421Z,32.60
2019-02-14T05:18:05.151Z,32.77
2019-02-14T05:20:33.593Z,35.27
2019-02-14T05:23:02.475Z,34.73
2019-02-14T05:25:31.292Z,29.13
2019-02-14T05:28:02.154Z,37.47
2019-02-14T05:30:30.705Z,31.80
2019-02-14T05:32:59.182Z,30.77
2019-02-14T05:35:27.942Z,29.20
2019-02-14T05:37:56.759Z,35.30
2019-02-14T05:40:25.534Z,30.53
2019-02-14T05:42:54.330Z,27.77
2019-02-14T05:45:22.858Z,33.80
2019-02-14T05:47:51.337Z,29.40
2019-02-14T05:50:19.854Z,27.67
2019-02-14T05:52:48.292Z,28.43
2019-02-14T05:55:17.060Z,28.93
2019-02-14T05:57:48.531Z,28.70
2019-02-14T06:00:19.906Z,32.10
2019-02-14T06:02:48.738Z,30.23
2019-02-14T06:05:17.327Z,29.47
2019-02-14T06:07:45.936Z,30.00
2019-02-14T06:10:16.103Z,29.50
2019-02-14T06:12:44.547Z,33.50
2019-02-14T06:15:13.664Z,34.83
2019-02-14T06:17:42.535Z,29.90
2019-02-14T06:20:12.035Z,27.13
2019-02-14T06:22:40.552Z,27.70
2019-02-14T06:25:10.765Z,32.40
2019-02-14T06:27:39.214Z,31.50
2019-02-14T06:30:13.624Z,26.63
2019-02-14T06:32:42.076Z,30.57
2019-02-14T06:35:14.201Z,29.53
2019-02-14T06:37:43.013Z,28.70
2019-02-14T06:40:13.221Z,34.00
2019-02-14T06:42:41.992Z,29.77
2019-02-14T06:45:13.074Z,28.60
2019-02-14T06:47:41.594Z,33.30
2019-02-14T06:50:10.650Z,24.67
2019-02-14T06:52:40.407Z,30.17
2019-02-14T06:55:09.823Z,33.77
2019-02-14T06:57:38.560Z,31.40
2019-02-14T07:00:19.054Z,27.60
2019-02-14T07:02:47.858Z,29.37
2019-02-14T07:05:16.630Z,33.90
2019-02-14T07:07:45.148Z,28.67
2019-02-14T07:10:13.722Z,27.27
2019-02-14T07:12:42.490Z,29.67
2019-02-14T07:15:14.981Z,27.07
2019-02-14T07:17:44.332Z,26.53
2019-02-14T07:20:17.133Z,30.97
2019-02-14T07:22:47.769Z,31.23
2019-02-14T07:25:17.693Z,37.80
2019-02-14T07:27:46.524Z,25.57
2019-02-14T07:30:24.164Z,22.83
2019-02-14T07:32:52.946Z,23.50
2019-02-14T07:35:21.642Z,22.27
2019-02-14T07:37:50.553Z,20.77
2019-02-14T07:40:19.072Z,25.97
2019-02-14T07:42:47.801Z,23.43
2019-02-14T07:45:17.506Z,20.40
2019-02-14T07:47:47.050Z,18.90
2019-02-14T07:50:15.651Z,21.57
2019-02-14T07:52:45.761Z,25.40
2019-02-14T07:55:14.764Z,25.63
2019-02-14T07:57:43.798Z,26.73
2019-02-14T08:00:21.821Z,21.77
2019-02-14T08:02:50.574Z,20.80
2019-02-14T08:05:19.374Z,24.77
2019-02-14T08:07:48.139Z,25.93
2019-02-14T08:10:17.620Z,22.77
2019-02-14T08:12:48.248Z,19.53
2019-02-14T08:15:16.929Z,17.00
2019-02-14T08:17:45.454Z,16.37
2019-02-14T08:20:21.320Z,14.03
2019-02-14T08:22:50.126Z,15.50
2019-02-14T08:25:18.816Z,21.02
2019-02-14T08:27:48.764Z,15.13
2019-02-14T08:30:19.196Z,14.90
2019-02-14T08:32:48.022Z,14.58
2019-02-14T08:35:16.817Z,24.05
2019-02-14T08:37:46.126Z,17.07
2019-02-14T08:40:18.002Z,16.02
2019-02-14T08:42:48.770Z,12.98
2019-02-14T08:45:17.345Z,16.80
2019-02-14T08:47:47.205Z,18.37
2019-02-14T08:50:15.736Z,16.75
2019-02-14T08:52:44.560Z,25.60
2019-02-14T08:55:13.414Z,15.40
2019-02-14T08:57:42.238Z,12.55
2019-02-14T09:00:13.500Z,12.37
2019-02-14T09:02:42.126Z,15.25
2019-02-14T09:05:10.862Z,11.35
2019-02-14T09:07:39.641Z,15.80
2019-02-14T09:10:16.828Z,14.93
2019-02-14T09:12:45.731Z,15.40
2019-02-14T09:15:15.067Z,15.20
2019-02-14T09:17:44.009Z,13.40
2019-02-14T09:20:23.033Z,15.20
2019-02-14T09:22:51.485Z,14.23
2019-02-14T09:25:20.193Z,14.60
2019-02-14T09:27:49.112Z,13.65
2019-02-14T09:30:19.369Z,12.35
2019-02-14T09:32:48.499Z,12.55
2019-02-14T09:35:17.068Z,10.80
2019-02-14T09:37:45.523Z,13.53
2019-02-14T09:40:16.366Z,12.35
2019-02-14T09:42:45.300Z,13.72
2019-02-14T09:45:14.497Z,11.73
2019-02-14T09:47:42.951Z,13.10
2019-02-14T09:50:13.602Z,12.60
2019-02-14T09:52:42.604Z,9.40
2019-02-14T09:55:12.960Z,10.23
2019-02-14T09:57:41.648Z,13.05
2019-02-14T10:00:13.142Z,14.50
2019-02-14T10:02:41.682Z,12.75
2019-02-14T10:05:10.785Z,14.93
2019-02-14T10:07:39.300Z,15.40
2019-02-14T10:10:15.157Z,17.27
2019-02-14T10:12:44.039Z,13.32
2019-02-14T10:15:13.106Z,14.55
2019-02-14T10:17:42.422Z,10.35
2019-02-14T10:20:17.847Z,14.18
2019-02-14T10:22:46.745Z,10.03
2019-02-14T10:25:15.725Z,11.75
2019-02-14T10:27:44.201Z,10.53
2019-02-14T10:30:21.709Z,11.60
2019-02-14T10:32:50.272Z,9.30
2019-02-14T10:35:21.086Z,13.53
2019-02-14T10:37:50.546Z,12.23
2019-02-14T10:40:19.036Z,12.03
2019-02-14T10:42:47.739Z,14.90
2019-02-14T10:45:20.712Z,14.55
2019-02-14T10:47:49.477Z,11.30
2019-02-14T10:50:18.346Z,11.55
2019-02-14T10:52:47.085Z,16.77
2019-02-14T10:55:15.981Z,13.68
2019-02-14T10:57:44.498Z,9.48
2019-02-14T11:00:24.757Z,9.15
2019-02-14T11:02:53.545Z,11.85
2019-02-14T11:05:22.153Z,11.45
2019-02-14T11:07:50.688Z,12.53
2019-02-14T11:10:20.529Z,10.25
2019-02-14T11:12:49.064Z,10.45
2019-02-14T11:15:20.263Z,8.13
2019-02-14T11:17:49.283Z,13.28
2019-02-14T11:20:18.433Z,8.95
2019-02-14T11:22:49.081Z,10.95
2019-02-14T11:25:23.903Z,10.05
2019-02-14T11:27:52.781Z,9.65
2019-02-14T11:30:21.592Z,10.43
2019-02-14T11:32:51.562Z,10.75
2019-02-14T11:35:20.133Z,11.20
2019-02-14T11:37:48.594Z,9.08
2019-02-14T11:40:17.101Z,10.80
2019-02-14T11:42:45.919Z,11.97
2019-02-14T11:45:25.146Z,12.28
2019-02-14T11:47:53.944Z,10.40
2019-02-14T11:50:22.743Z,9.75
2019-02-14T11:52:51.604Z,12.10
2019-02-14T11:55:20.090Z,11.95
2019-02-14T11:57:50.244Z,13.22
2019-02-14T12:00:24.687Z,10.78
2019-02-14T12:02:55.906Z,11.80
2019-02-14T12:05:24.095Z,10.40
2019-02-14T12:07:52.625Z,11.05
2019-02-14T12:10:21.211Z,9.83
2019-02-14T12:12:51.334Z,8.70
2019-02-14T12:15:19.835Z,9.45
2019-02-14T12:17:48.721Z,8.10
2019-02-14T12:20:17.168Z,8.60
2019-02-14T12:22:47.028Z,7.45
2019-02-14T12:25:21.644Z,6.10
2019-02-14T12:27:51.588Z,6.50
2019-02-14T12:30:20.413Z,8.00
2019-02-14T12:32:50.710Z,7.72
2019-02-14T12:35:19.512Z,6.85
2019-02-14T12:37:47.972Z,9.80
2019-02-14T12:40:18.854Z,5.97
2019-02-14T12:42:47.636Z,8.13
2019-02-14T12:45:21.487Z,5.17
2019-02-14T12:47:49.321Z,7.85
2019-02-14T12:50:17.878Z,6.37
2019-02-14T12:52:46.668Z,9.28
2019-02-14T12:55:15.136Z,9.45
2019-02-14T12:57:44.078Z,8.43
2019-02-14T13:00:18.021Z,4.17
2019-02-14T13:02:46.720Z,8.48
2019-02-14T13:05:15.428Z,10.40
2019-02-14T13:07:44.210Z,6.03
2019-02-14T13:10:18.999Z,7.65
2019-02-14T13:12:47.757Z,5.00
2019-02-14T13:15:21.654Z,5.10
2019-02-14T13:17:50.426Z,5.95
2019-02-14T13:20:18.974Z,4.85
2019-02-14T13:22:47.434Z,4.83
2019-02-14T13:25:16.661Z,8.55
2019-02-14T13:27:45.236Z,4.53
2019-02-14T13:30:16.695Z,7.62
2019-02-14T13:32:45.607Z,7.87
2019-02-14T13:35:14.394Z,7.37
2019-02-14T13:37:44.709Z,7.55
2019-02-14T13:40:13.595Z,9.65
2019-02-14T13:42:42.405Z,9.00
2019-02-14T13:45:24.440Z,10.53
2019-02-14T13:47:53.272Z,8.60
2019-02-14T13:50:23.153Z,8.50
2019-02-14T13:52:51.887Z,9.13
2019-02-14T13:55:20.818Z,7.17
2019-02-14T13:57:49.352Z,8.23
2019-02-14T14:00:20.829Z,7.40
2019-02-14T14:02:49.573Z,7.10
2019-02-14T14:05:18.659Z,7.20
2019-02-14T14:07:47.223Z,13.28
2019-02-14T14:10:16.813Z,8.63
2019-02-14T14:12:45.264Z,9.05
2019-02-14T14:15:14.520Z,10.32
2019-02-14T14:17:43.574Z,8.23
2019-02-14T14:20:12.215Z,9.33
2019-02-14T14:22:41.085Z,12.05
2019-02-14T14:25:11.533Z,8.45
2019-02-14T14:27:40.556Z,7.03
2019-02-14T14:30:11.330Z,8.68
2019-02-14T14:32:39.844Z,11.03
2019-02-14T14:35:11.080Z,13.83
2019-02-14T14:37:40.357Z,13.10
2019-02-14T14:40:11.490Z,8.95
2019-02-14T14:42:53.761Z,8.40
2019-02-14T14:45:39.110Z,8.78
2019-02-14T14:48:09.292Z,9.55
2019-02-14T14:50:37.753Z,8.33
2019-02-14T14:53:07.534Z,6.58
2019-02-14T14:55:36.212Z,9.40
2019-02-14T14:58:06.401Z,4.97
2019-02-14T15:00:35.397Z,7.00
2019-02-14T15:03:03.879Z,7.20
2019-02-14T15:05:32.395Z,7.17
2019-02-14T15:08:01.116Z,7.53
2019-02-14T15:10:30.101Z,7.35
2019-02-14T15:12:58.594Z,8.43
2019-02-14T15:15:27.485Z,4.75
2019-02-14T15:17:56.010Z,4.80
2019-02-14T15:20:24.484Z,11.78
2019-02-14T15:22:53.434Z,9.78
2019-02-14T15:25:21.960Z,7.12
2019-02-14T15:27:50.405Z,9.08
2019-02-14T15:30:19.132Z,6.62
2019-02-14T15:32:48.078Z,5.92
2019-02-14T15:35:18.289Z,8.65
2019-02-14T15:37:47.241Z,6.95
2019-02-14T15:40:16.069Z,5.30
2019-02-14T15:42:44.576Z,5.08
2019-02-14T15:45:14.685Z,7.78
2019-02-14T15:47:43.222Z,7.37
2019-02-14T15:50:11.745Z,7.22
2019-02-14T15:52:40.220Z,9.50
2019-02-14T15:55:08.814Z,5.55
2019-02-14T15:57:37.587Z,7.45
2019-02-14T16:00:10.662Z,7.42
2019-02-14T16:02:39.779Z,8.10
2019-02-14T16:05:09.766Z,13.22
2019-02-14T16:07:39.537Z,6.40
2019-02-14T16:10:18.075Z,7.90
2019-02-14T16:12:41.338Z,7.17
2019-02-14T16:15:10.830Z,7.92
2019-02-14T16:17:39.348Z,8.08
2019-02-14T16:20:09.309Z,12.60
2019-02-14T16:22:41.819Z,8.23
2019-02-14T16:25:10.179Z,9.75
2019-02-14T16:27:38.624Z,10.32
2019-02-14T16:30:10.791Z,7.15
2019-02-14T16:32:40.677Z,9.28
2019-02-14T16:35:09.279Z,10.30
2019-02-14T16:37:38.150Z,12.35
2019-02-14T16:40:09.291Z,9.83
2019-02-14T16:42:37.808Z,6.70
2019-02-14T16:45:08.296Z,16.70
2019-02-14T16:47:37.182Z,11.78
2019-02-14T16:50:08.580Z,16.77
2019-02-14T16:52:37.304Z,9.18
2019-02-14T16:55:07.556Z,18.75
2019-02-14T16:57:39.079Z,5.58
2019-02-14T17:03:36.789Z,9.03
2019-02-14T17:06:05.308Z,8.48
2019-02-14T17:08:33.782Z,8.15
2019-02-14T17:11:02.317Z,9.30
2019-02-14T17:13:31.100Z,8.90
2019-02-14T17:15:59.902Z,13.68
2019-02-14T17:18:29.730Z,12.28
2019-02-14T17:20:58.590Z,12.00
2019-02-14T17:23:28.307Z,10.93
2019-02-14T17:25:58.078Z,10.63
2019-02-14T17:28:27.177Z,10.13
2019-02-14T17:30:56.015Z,9.95
2019-02-14T17:33:24.566Z,9.68
2019-02-14T17:35:53.412Z,9.23
2019-02-14T17:38:24.499Z,8.48
2019-02-14T17:40:53.018Z,7.75
2019-02-14T17:43:21.566Z,9.60
2019-02-14T17:45:50.070Z,9.15
2019-02-14T17:48:18.621Z,17.10
2019-02-14T17:50:47.511Z,16.05
2019-02-14T17:53:16.204Z,16.75
2019-02-14T17:55:45.005Z,14.10
2019-02-14T17:58:13.772Z,12.88
2019-02-14T18:00:54.413Z,15.15
2019-02-14T18:03:22.872Z,17.75
2019-02-14T18:05:51.339Z,17.35
2019-02-14T18:08:20.422Z,12.15
2019-02-14T18:10:54.772Z,13.60
2019-02-14T18:13:20.774Z,12.47
2019-02-14T18:15:49.496Z,12.25
2019-02-14T18:18:18.326Z,15.23
2019-02-14T18:20:48.291Z,21.30
2019-02-14T18:23:17.028Z,17.50
2019-02-14T18:25:45.578Z,15.20
2019-02-14T18:28:14.613Z,16.07
2019-02-14T18:30:43.376Z,14.53
2019-02-14T18:33:11.987Z,17.20
2019-02-14T18:35:40.434Z,11.33
2019-02-14T18:38:09.226Z,11.12
2019-02-14T18:40:37.993Z,17.92
2019-02-14T18:43:06.513Z,21.85
2019-02-14T18:45:35.025Z,18.62
2019-02-14T18:48:03.527Z,14.80
2019-02-14T18:50:32.331Z,15.10
2019-02-14T18:53:01.116Z,16.85
2019-02-14T18:55:29.627Z,14.33
2019-02-14T18:57:58.140Z,15.18
2019-02-14T19:00:26.581Z,15.88
2019-02-14T19:02:55.334Z,14.90
2019-02-14T19:05:23.789Z,17.50
2019-02-14T19:07:52.281Z,16.07
2019-02-14T19:10:20.854Z,13.40
2019-02-14T19:12:49.361Z,14.58
2019-02-14T19:15:18.197Z,17.27
2019-02-14T19:17:46.740Z,19.27
2019-02-14T19:20:15.257Z,15.75
2019-02-14T19:22:43.725Z,18.92
2019-02-14T19:25:12.612Z,19.02
2019-02-14T19:27:41.382Z,17.23
2019-02-14T19:30:11.200Z,16.52
2019-02-14T19:32:39.715Z,18.12
2019-02-14T19:35:09.743Z,17.55
2019-02-14T19:37:38.359Z,20.27
2019-02-14T19:40:08.811Z,25.70
2019-02-14T19:42:37.746Z,23.15
2019-02-14T19:45:11.696Z,30.48
2019-02-14T19:47:40.249Z,19.55
2019-02-14T19:50:10.820Z,26.02
2019-02-14T19:52:40.247Z,19.23
2019-02-14T19:55:09.561Z,19.65
2019-02-14T19:57:38.009Z,21.00
2019-02-14T20:00:11.907Z,23.73
2019-02-14T20:02:40.532Z,20.23
2019-02-14T20:05:09.919Z,18.55
2019-02-14T20:07:38.633Z,23.83
2019-02-14T20:10:15.248Z,21.75
2019-02-14T20:12:43.697Z,19.37
2019-02-14T20:15:17.624Z,19.02
2019-02-14T20:17:46.103Z,20.97
2019-02-14T20:20:15.014Z,32.58
2019-02-14T20:22:44.711Z,18.42
2019-02-14T20:25:16.689Z,21.00
2019-02-14T20:27:45.440Z,16.73
2019-02-14T20:30:13.911Z,19.75
2019-02-14T20:32:42.458Z,20.40
2019-02-14T20:35:11.046Z,20.90
2019-02-14T20:37:41.412Z,19.35
2019-02-14T20:40:11.018Z,19.60
2019-02-14T20:42:39.796Z,15.15
2019-02-14T20:45:13.687Z,20.50
2019-02-14T20:47:42.245Z,19.02
2019-02-14T20:50:16.635Z,18.05
2019-02-14T20:52:45.664Z,20.40
2019-02-14T20:55:17.127Z,17.95
2019-02-14T20:57:45.934Z,14.80
2019-02-14T21:00:17.202Z,19.75
2019-02-14T21:02:45.977Z,17.92
2019-02-14T21:05:14.743Z,17.30
2019-02-14T21:07:43.222Z,20.60
2019-02-14T21:10:12.149Z,19.70
2019-02-14T21:12:41.003Z,17.92
2019-02-14T21:15:09.840Z,22.97
2019-02-14T21:17:42.346Z,21.65
2019-02-14T21:20:15.055Z,20.40
2019-02-14T21:22:43.646Z,17.15
2019-02-14T21:25:12.622Z,16.57
2019-02-14T21:27:41.358Z,26.25
2019-02-14T21:30:13.138Z,15.63
2019-02-14T21:32:41.814Z,19.05
2019-02-14T21:35:10.780Z,20.70
2019-02-14T21:37:39.402Z,18.12
2019-02-14T21:40:13.488Z,19.30
2019-02-14T21:42:41.955Z,19.90
2019-02-14T21:45:15.299Z,23.97
2019-02-14T21:47:43.783Z,20.73
2019-02-14T21:50:15.555Z,14.80
2019-02-14T21:52:45.517Z,13.37
2019-02-14T21:55:15.325Z,17.37
2019-02-14T21:57:44.061Z,16.23
2019-02-14T22:00:27.345Z,20.37
2019-02-14T22:02:55.858Z,17.73
2019-02-14T22:05:26.137Z,17.85
2019-02-14T22:07:56.436Z,21.93
2019-02-14T22:10:25.037Z,23.80
2019-02-14T22:12:53.557Z,16.83
2019-02-14T22:15:27.317Z,19.60
2019-02-14T22:17:57.364Z,24.90
2019-02-14T22:20:25.847Z,22.30
2019-02-14T22:22:54.394Z,21.67
2019-02-14T22:25:22.920Z,36.00
2019-02-14T22:27:51.856Z,42.80
2019-02-14T22:30:21.306Z,41.30
2019-02-14T22:32:50.210Z,41.07
2019-02-14T22:35:19.001Z,57.87
2019-02-14T22:37:47.471Z,77.97
2019-02-14T22:40:17.468Z,52.07
2019-02-14T22:42:47.919Z,62.03
2019-02-14T22:45:16.825Z,42.80
2019-02-14T22:47:45.609Z,47.40
2019-02-14T22:50:14.490Z,52.20
2019-02-14T22:52:43.226Z,38.80
2019-02-14T22:55:13.923Z,36.63
2019-02-14T22:57:42.476Z,27.67
2019-02-14T23:00:32.539Z,31.27
2019-02-14T23:03:02.631Z,31.90
2019-02-14T23:05:31.419Z,27.87
2019-02-14T23:08:10.614Z,28.57
2019-02-14T23:10:39.617Z,23.27
2019-02-14T23:13:09.923Z,34.15
2019-02-14T23:15:38.710Z,23.00
2019-02-14T23:18:07.624Z,28.17
2019-02-14T23:20:36.193Z,21.73
2019-02-14T23:23:04.969Z,22.07
2019-02-14T23:25:33.692Z,24.17
2019-02-14T23:28:02.143Z,20.33
2019-02-14T23:30:30.964Z,30.23
2019-02-14T23:32:59.813Z,20.00
2019-02-14T23:35:29.454Z,27.57
2019-02-14T23:37:59.300Z,24.03
2019-02-14T23:40:28.085Z,20.37
2019-02-14T23:43:04.458Z,21.87
2019-02-14T23:45:27.136Z,35.40
2019-02-14T23:47:55.638Z,26.33
2019-02-14T23:50:24.388Z,17.83
2019-02-14T23:52:53.176Z,19.40
2019-02-14T23:55:21.956Z,19.43
2019-02-14T23:57:50.824Z,19.47
